x

Central Aleutians 230nm Sw Dutch Harbor (46072) Wave Buoy

9:50 - Wed 27th Aug 2014 All times are UTC.

  • Sig Wave height 8.5ft
  • Peak Period 10s
  • Average Period 6s
  • Wind
    20mph, 27mph gusts
  • Sea Temp 54°f
  • Aire Temp 54°f
  • Sea Pressure 1015.6mb

More Historic Weather Station data

Upgrade to MSW Pro to gain access to the past 30 days of data for over 8000 Wavebouys and Weather Stations around the globe.

Join Pro

Comparision Forecast

View Surf forecast
   
mié 08/27 9:50 8.5ft 10s 6s 20 27 mph 1015.6mb 54f 54f
8:50 9.5ft 8s 6s 20 25 mph 1015.6mb 53f 54f
7:50 9.5ft 10s 6s 20 22 mph 1015.6mb 53f 54f
6:50 9.5ft 10s 6s 20 25 mph 1015.7mb 54f 54f
5:50 10ft 10s 6s 20 25 mph 1015.5mb 54f 54f
4:50 11.5ft 10s 7s 22 27 mph 1015.5mb 53f 54f
3:50 10ft 9s 6s 22 27 mph 1015.5mb 51f 54f
2:50 10ft 8s 6s 25 29 mph 1015.6mb 50f 54f
1:50 9ft 10s 6s 20 27 mph 1015.5mb 49f 54f
12:50 9ft 10s 6s 22 27 mph 1015.3mb 50f 54f
mar 08/26 11:50 9.5ft 9s 7s 20 25 mph 1015.5mb 50f 54f
10:50 9ft 9s 7s 20 22 mph 1015.3mb 50f 54f
9:50 10ft 10s 7s 20 22 mph 1015.6mb 51f 54f
8:50 10ft 8s 6s 18 22 mph 1015.7mb 51f 54f
7:50 11ft 9s 7s 18 22 mph 1015.3mb 51f 54f
6:50 10ft 9s 7s 20 25 mph 1015.1mb 52f 54f
5:50 11ft 9s 7s 20 25 mph 1014.7mb 52f 54f
4:50 11ft 8s 7s 22 31 mph 1014.2mb 53f 55f
3:50 9.5ft 8s 6s 25 29 mph 1013.8mb 54f 55f
2:50 10ft 9s 6s 25 31 mph 1014mb 54f 55f
1:50 11.5ft 8s 7s 25 29 mph 1014.1mb 54f 55f
12:50 10ft 8s 6s 25 31 mph 1014.2mb 54f 55f
11:50 10.5ft 8s 6s 27 31 mph 1014.6mb 54f 55f
10:50 9ft 7s 6s 27 31 mph 1014.8mb 54f 55f
9:50 9ft 6s 5s 27 31 mph 1015.2mb 54f 55f
8:50 8.5ft 6s 5s 25 31 mph 1015.5mb 54f 55f
7:50 7.5ft 5s 5s 27 34 mph 1015.9mb 54f 55f
6:50 6ft 5s 5s 27 31 mph 1016.4mb 54f 55f
5:50 6ft 5s 5s 27 31 mph 1016.7mb 54f 54f
4:50 5ft 5s 4s 25 29 mph 1017.7mb 54f 54f
3:50 4ft 8s 5s 18 22 mph 1019mb 54f 54f
2:50 4.5ft 8s 5s 18 20 mph 1019.8mb 54f 54f
1:50 4.5ft 8s 5s 18 20 mph 1020.5mb 53f 54f
12:50 4.5ft 8s 5s 13 16 mph 1021.3mb 54f 54f
lun 08/25 11:50 4ft 6s 5s 13 16 mph 1021.7mb 54f 54f
10:50 4.5ft 6s 5s 11 13 mph 1022.1mb 54f 54f
9:50 4.5ft 6s 5s 11 13 mph 1022.4mb 54f 54f
8:50 5ft 6s 5s 11 13 mph 1022.5mb 53f 53f
7:50 5ft 6s 5s 11 13 mph 1022.3mb 53f 53f
6:50 5ft 6s 5s 11 16 mph 1022.3mb 53f 53f
5:50 4.5ft 6s 5s 13 16 mph 1022.3mb 53f 52f
4:50 4.5ft 6s 6s 13 16 mph 1022.1mb 53f 52f
3:50 4.5ft 7s 5s 13 16 mph 1022.1mb 52f 52f
2:50 5ft 7s 6s 11 13 mph 1021.9mb 53f 52f
1:50 4.5ft 7s 6s 11 16 mph 1021.8mb 51f 51f
12:50 4.5ft 7s 5s 11 13 mph 1021.6mb 50f 51f
11:50 5ft 7s 5s 13 16 mph 1021.5mb 50f 51f
10:50 6ft 7s 5s 16 18 mph 1021.5mb 50f 51f
9:50 6.5ft 7s 5s 13 16 mph 1021.5mb 50f 51f
8:50 7ft 7s 5s 16 18 mph 1021.2mb 50f 51f
7:50 7ft 7s 6s 16 18 mph 1020.7mb 50f 51f
6:50 8ft 7s 6s 16 18 mph 1020.3mb 51f 51f
5:50 8ft 8s 6s 18 22 mph 1019.6mb 51f 51f
4:50 9ft 8s 6s 20 25 mph 1019mb 51f 51f
3:50 8ft 8s 6s 20 25 mph 1018.4mb 51f 51f
2:50 9ft 8s 6s 20 25 mph 1017.8mb 51f 51f
1:50 8ft 8s 6s 22 27 mph 1017.1mb 52f 51f
12:50 10ft 8s 6s 25 29 mph 1016.7mb 52f 52f
dom 08/24 11:50 9.5ft 8s 6s 25 29 mph 1016.1mb 53f 52f
10:50 9.5ft 7s 6s 27 34 mph 1015.4mb 54f 52f
9:50 10ft 7s 6s 27 31 mph 1014.9mb 54f 52f
8:50 11ft 7s 6s 27 34 mph 1014.7mb 53f 52f
7:50 11ft 9s 6s 29 34 mph 1013.8mb 54f 53f
6:50 10.5ft 9s 6s 27 31 mph 1013.3mb 54f 52f
5:50 10.5ft 9s 6s 27 34 mph 1012.6mb 54f 52f
4:50 11ft 8s 7s 27 34 mph 1012mb 54f 52f
3:50 13ft 8s 7s 27 34 mph 1011.4mb 54f 52f
2:50 11ft 7s 6s 27 34 mph 1011mb 54f 52f
1:50 11ft 8s 6s 31 36 mph 1010.6mb 54f 52f
12:50 10ft 8s 6s 27 34 mph 1010.1mb 54f 53f
11:50 11ft 8s 6s 29 36 mph 1009.3mb 54f 53f
10:50 10ft 8s 6s 27 34 mph 1009.5mb 54f 53f
9:50 9ft 8s 6s 31 38 mph 1008.5mb 54f 53f
8:50 9ft 8s 6s 29 34 mph 1008.4mb 55f 53f
7:50 8ft 8s 5s 25 31 mph 1008mb 55f 54f
6:50 8ft 8s 5s 25 29 mph 1007.4mb 55f 53f
5:50 8ft 7s 5s 27 31 mph 1006.8mb 55f 53f
4:50 7.5ft 7s 5s 27 34 mph 1006mb 55f 53f
3:50 7ft 6s 5s 29 36 mph 1005.6mb 55f 53f
2:50 7ft 7s 5s 25 31 mph 1005.4mb 55f 53f
1:50 6ft 6s 5s 25 31 mph 1005.1mb 55f 53f
12:50 5ft 6s 5s 20 27 mph 1005.1mb 55f 54f
sáb 08/23 11:50 5ft 6s 5s 20 25 mph 1005mb 55f 53f
10:50 4.5ft 6s 5s 16 20 mph 1004.7mb 55f 54f
9:50 4.5ft 6s 5s 13 18 mph 1004.5mb 55f 54f
8:50 4.5ft 6s 5s 16 20 mph 1004.2mb 55f 54f
7:50 5ft 6s 5s 18 22 mph 1003.9mb 55f 54f
6:50 5ft 5s 4s 18 22 mph 1004mb 55f 54f
5:50 4.5ft 5s 5s 16 20 mph 1004.2mb 55f 53f
4:50 4.5ft 6s 5s 16 20 mph 1004.3mb 55f 53f
3:50 4.5ft 6s 5s 13 16 mph 1004.3mb 54f 54f
2:50 4.5ft 7s 5s 11 13 mph 1004.5mb 54f 53f
1:50 4.5ft 7s 5s 13 16 mph 1004.5mb 54f 53f
12:50 4.5ft 6s 5s 9 11 mph 1004.4mb 54f 53f
11:50 5ft 6s 5s 13 16 mph 1004.5mb 54f 53f